createdAt,value
2018-09-02T00:00:29.748Z,12.17
2018-09-02T00:01:38.387Z,12.2
2018-09-02T00:02:47.037Z,12.18
2018-09-02T00:03:55.672Z,12.18
2018-09-02T00:05:04.589Z,12.17
2018-09-02T00:06:13.222Z,12.2
2018-09-02T00:07:21.869Z,12.12
2018-09-02T00:08:30.509Z,12.08
2018-09-02T00:09:39.423Z,12.1
2018-09-02T00:10:48.057Z,12.02
2018-09-02T00:11:56.704Z,12.07
2018-09-02T00:13:05.348Z,11.99
2018-09-02T00:14:13.999Z,12.02
2018-09-02T00:15:22.641Z,12.02
2018-09-02T00:16:31.281Z,11.89
2018-09-02T00:17:39.919Z,11.95
2018-09-02T00:18:48.561Z,11.89
2018-09-02T00:19:57.213Z,11.95
2018-09-02T00:21:06.383Z,11.97
2018-09-02T00:22:15.564Z,11.88
2018-09-02T00:23:24.197Z,11.86
2018-09-02T00:24:32.849Z,11.91
2018-09-02T00:25:42.089Z,11.93
2018-09-02T00:26:50.737Z,11.95
2018-09-02T00:27:59.371Z,11.78
2018-09-02T00:29:08.025Z,11.88
2018-09-02T00:30:16.676Z,11.85
2018-09-02T00:31:25.316Z,11.78
2018-09-02T00:32:33.949Z,11.91
2018-09-02T00:33:42.611Z,11.85
2018-09-02T00:34:51.242Z,11.88
2018-09-02T00:35:59.888Z,11.78
2018-09-02T00:37:08.534Z,11.81
2018-09-02T00:38:17.431Z,11.81
2018-09-02T00:39:26.335Z,11.8
2018-09-02T00:40:34.979Z,11.8
2018-09-02T00:41:43.624Z,11.67
2018-09-02T00:42:52.262Z,11.71
2018-09-02T00:44:01.174Z,11.76
2018-09-02T00:45:10.079Z,11.81
2018-09-02T00:46:18.730Z,11.7
2018-09-02T00:47:27.630Z,11.77
2018-09-02T00:48:36.276Z,11.74
2018-09-02T00:49:45.177Z,11.71
2018-09-02T00:50:53.833Z,11.74
2018-09-02T00:52:02.735Z,11.76
2018-09-02T00:53:11.377Z,11.71
2018-09-02T00:54:20.017Z,11.73
2018-09-02T00:55:28.661Z,11.73
2018-09-02T00:56:37.315Z,11.68
2018-09-02T00:57:45.958Z,11.68
2018-09-02T00:58:54.602Z,11.67
2018-09-02T01:00:03.241Z,11.74
2018-09-02T01:01:11.887Z,11.65
2018-09-02T01:02:20.794Z,11.71
2018-09-02T01:03:29.438Z,11.63
2018-09-02T01:04:38.342Z,11.68
2018-09-02T01:05:46.990Z,11.56
2018-09-02T01:06:55.629Z,11.56
2018-09-02T01:08:04.274Z,11.52
2018-09-02T01:09:12.906Z,11.56
2018-09-02T01:10:21.555Z,11.6
2018-09-02T01:11:30.196Z,11.59
2018-09-02T01:12:39.152Z,11.59
2018-09-02T01:13:47.796Z,11.52
2018-09-02T01:14:56.432Z,11.52
2018-09-02T01:16:05.083Z,11.53
2018-09-02T01:17:13.728Z,11.43
2018-09-02T01:18:22.374Z,11.44
2018-09-02T01:19:31.011Z,11.45
2018-09-02T01:20:39.653Z,11.56
2018-09-02T01:21:48.296Z,11.49
2018-09-02T01:22:57.015Z,11.55
2018-09-02T01:24:05.589Z,11.49
2018-09-02T01:25:14.231Z,11.48
2018-09-02T01:26:22.870Z,11.55
2018-09-02T01:27:31.522Z,11.53
2018-09-02T01:28:40.156Z,11.48
2018-09-02T01:29:48.798Z,11.56
2018-09-02T01:30:57.436Z,11.49
2018-09-02T01:32:06.076Z,11.41
2018-09-02T01:33:14.725Z,11.45
2018-09-02T01:34:23.373Z,11.43
2018-09-02T01:35:32.014Z,11.41
2018-09-02T01:36:40.914Z,11.44
2018-09-02T01:37:49.827Z,11.43
2018-09-02T01:38:58.470Z,11.43
2018-09-02T01:40:07.111Z,11.49
2018-09-02T01:41:15.758Z,11.44
2018-09-02T01:42:24.394Z,11.41
2018-09-02T01:43:33.040Z,11.51
2018-09-02T01:44:41.679Z,11.4
2018-09-02T01:45:50.331Z,11.34
2018-09-02T01:46:59.232Z,11.4
2018-09-02T01:48:07.873Z,11.35
2018-09-02T01:49:16.517Z,11.45
2018-09-02T01:50:25.153Z,11.43
2018-09-02T01:51:33.801Z,11.34
2018-09-02T01:52:42.709Z,11.3
2018-09-02T01:53:51.351Z,11.34
2018-09-02T01:54:59.989Z,11.26
2018-09-02T01:56:08.912Z,11.3
2018-09-02T01:57:18.078Z,11.3
2018-09-02T01:58:26.718Z,11.3
2018-09-02T01:59:35.356Z,11.2
2018-09-02T02:00:44.000Z,11.26
2018-09-02T02:01:52.639Z,11.25
2018-09-02T02:03:01.284Z,11.27
2018-09-02T02:04:09.920Z,11.3
2018-09-02T02:05:18.561Z,11.3
2018-09-02T02:06:27.201Z,11.27
2018-09-02T02:07:35.847Z,11.31
2018-09-02T02:08:44.492Z,11.25
2018-09-02T02:09:53.126Z,11.25
2018-09-02T02:11:01.768Z,11.2
2018-09-02T02:12:10.414Z,11.2
2018-09-02T02:13:19.062Z,11.13
2018-09-02T02:14:27.699Z,11.22
2018-09-02T02:15:36.339Z,11.16
2018-09-02T02:16:44.982Z,11.15
2018-09-02T02:17:53.627Z,11.13
2018-09-02T02:19:02.266Z,11.15
2018-09-02T02:20:11.207Z,11.1
2018-09-02T02:21:19.844Z,11.12
2018-09-02T02:22:28.497Z,11.1
2018-09-02T02:23:37.661Z,11.12
2018-09-02T02:24:46.300Z,11.13
2018-09-02T02:25:54.938Z,11.05
2018-09-02T02:27:03.578Z,11.13
2018-09-02T02:28:12.232Z,11.08
2018-09-02T02:29:20.867Z,11.04
2018-09-02T02:30:29.510Z,11.04
2018-09-02T02:31:38.147Z,11.04
2018-09-02T02:32:46.792Z,11.1
2018-09-02T02:33:55.963Z,11.02
2018-09-02T02:35:04.871Z,11.07
2018-09-02T02:36:13.505Z,11.1
2018-09-02T02:37:22.160Z,11.07
2018-09-02T02:38:30.801Z,11.04
2018-09-02T02:39:39.447Z,11.1
2018-09-02T02:40:48.080Z,11.01
2018-09-02T02:41:56.723Z,11.02
2018-09-02T02:43:05.369Z,11.01
2018-09-02T02:44:14.012Z,11.02
2018-09-02T02:45:22.667Z,10.9
2018-09-02T02:46:31.297Z,11.04
2018-09-02T02:47:40.208Z,10.95
2018-09-02T02:48:48.848Z,11
2018-09-02T02:49:57.497Z,10.98
2018-09-02T02:51:06.134Z,10.95
2018-09-02T02:52:14.782Z,11.01
2018-09-02T02:53:23.427Z,11.02
2018-09-02T02:54:32.078Z,11.05
2018-09-02T02:55:40.979Z,11.02
2018-09-02T02:56:49.624Z,11
2018-09-02T02:57:58.267Z,10.98
2018-09-02T02:59:06.917Z,10.98
2018-09-02T03:00:15.559Z,11
2018-09-02T03:01:24.726Z,11.05
2018-09-02T03:02:33.364Z,11.01
2018-09-02T03:03:42.003Z,11.02
2018-09-02T03:04:50.654Z,11.07
2018-09-02T03:05:59.290Z,11.08
2018-09-02T03:07:07.937Z,11.12
2018-09-02T03:08:16.585Z,11.12
2018-09-02T03:09:25.504Z,11.12
2018-09-02T03:10:34.141Z,11.1
2018-09-02T03:11:42.788Z,11.15
2018-09-02T03:12:51.420Z,11.15
2018-09-02T03:14:00.072Z,11.15
2018-09-02T03:15:08.717Z,11.1
2018-09-02T03:16:17.354Z,11.1
2018-09-02T03:17:25.987Z,11.12
2018-09-02T03:18:34.631Z,11.08
2018-09-02T03:19:43.288Z,11.12
2018-09-02T03:20:51.944Z,11.16
2018-09-02T03:22:00.589Z,11.15
2018-09-02T03:23:09.494Z,11.1
2018-09-02T03:24:18.149Z,11.01
2018-09-02T03:25:26.786Z,11.08
2018-09-02T03:26:35.438Z,11.15
2018-09-02T03:27:44.078Z,11.1
2018-09-02T03:28:52.991Z,11.12
2018-09-02T03:30:01.888Z,11.08
2018-09-02T03:31:10.548Z,11.1
2018-09-02T03:32:19.184Z,11.18
2018-09-02T03:33:27.832Z,11.13
2018-09-02T03:34:36.473Z,11.1
2018-09-02T03:35:45.117Z,11.13
2018-09-02T03:36:53.762Z,11.1
2018-09-02T03:38:02.401Z,11.12
2018-09-02T03:39:11.041Z,11.1
2018-09-02T03:40:19.681Z,11.19
2018-09-02T03:41:28.878Z,11.12
2018-09-02T03:42:37.783Z,11.1
2018-09-02T03:43:46.425Z,11.13
2018-09-02T03:44:55.064Z,11.08
2018-09-02T03:46:03.713Z,11.15
2018-09-02T03:47:12.367Z,11.16
2018-09-02T03:48:20.999Z,11.2
2018-09-02T03:49:29.906Z,11.22
2018-09-02T03:50:38.554Z,11.31
2018-09-02T03:51:47.202Z,11.2
2018-09-02T03:52:55.854Z,11.31
2018-09-02T03:54:04.491Z,11.31
2018-09-02T03:55:13.140Z,11.33
2018-09-02T03:56:21.782Z,11.37
2018-09-02T03:57:30.434Z,11.31
2018-09-02T03:58:39.337Z,11.3
2018-09-02T03:59:47.977Z,11.33
2018-09-02T04:00:56.883Z,11.35
2018-09-02T04:02:05.788Z,11.41
2018-09-02T04:03:14.437Z,11.38
2018-09-02T04:04:23.075Z,11.45
2018-09-02T04:05:31.982Z,11.41
2018-09-02T04:06:40.897Z,11.52
2018-09-02T04:07:49.814Z,11.45
2018-09-02T04:08:58.452Z,11.44
2018-09-02T04:10:07.098Z,11.45
2018-09-02T04:11:15.775Z,11.56
2018-09-02T04:12:24.700Z,11.51
2018-09-02T04:13:33.602Z,11.51
2018-09-02T04:14:42.245Z,11.56
2018-09-02T04:15:50.884Z,11.65
2018-09-02T04:16:59.524Z,11.49
2018-09-02T04:18:08.439Z,11.51
2018-09-02T04:19:17.079Z,11.53
2018-09-02T04:20:25.719Z,11.55
2018-09-02T04:21:34.364Z,11.59
2018-09-02T04:22:43.004Z,11.53
2018-09-02T04:23:51.647Z,11.52
2018-09-02T04:25:00.290Z,11.52
2018-09-02T04:26:08.930Z,11.53
2018-09-02T04:27:17.579Z,11.52
2018-09-02T04:28:26.483Z,11.53
2018-09-02T04:29:35.128Z,11.45
2018-09-02T04:30:43.762Z,11.48
2018-09-02T04:31:52.408Z,11.44
2018-09-02T04:33:01.058Z,11.55
2018-09-02T04:34:09.706Z,11.48
2018-09-02T04:35:18.626Z,11.43
2018-09-02T04:36:27.264Z,11.38
2018-09-02T04:37:35.917Z,11.41
2018-09-02T04:38:44.560Z,11.41
2018-09-02T04:39:53.210Z,11.38
2018-09-02T04:41:02.106Z,11.27
2018-09-02T04:42:11.020Z,11.38
2018-09-02T04:43:19.662Z,11.31
2018-09-02T04:44:28.571Z,11.31
2018-09-02T04:45:37.470Z,11.31
2018-09-02T04:46:46.120Z,11.38
2018-09-02T04:47:55.023Z,11.26
2018-09-02T04:49:03.676Z,11.31
2018-09-02T04:50:12.620Z,11.33
2018-09-02T04:51:21.548Z,11.33
2018-09-02T04:52:30.454Z,11.27
2018-09-02T04:53:39.357Z,11.33
2018-09-02T04:54:48.008Z,11.25
2018-09-02T04:55:56.646Z,11.27
2018-09-02T04:57:05.293Z,11.26
2018-09-02T04:58:13.926Z,11.35
2018-09-02T04:59:23.108Z,11.35
2018-09-02T05:00:31.745Z,11.26
2018-09-02T05:01:40.396Z,11.31
2018-09-02T05:02:49.294Z,11.31
2018-09-02T05:03:57.945Z,11.31
2018-09-02T05:05:06.852Z,11.25
2018-09-02T05:06:15.493Z,11.31
2018-09-02T05:07:24.126Z,11.27
2018-09-02T05:08:32.778Z,11.26
2018-09-02T05:09:41.426Z,11.23
2018-09-02T05:10:50.075Z,11.25
2018-09-02T05:11:58.720Z,11.31
2018-09-02T05:13:07.353Z,11.2
2018-09-02T05:14:16.511Z,11.25
2018-09-02T05:15:25.057Z,11.26
2018-09-02T05:16:33.708Z,11.33
2018-09-02T05:17:42.341Z,11.18
2018-09-02T05:18:50.988Z,11.19
2018-09-02T05:19:59.906Z,11.2
2018-09-02T05:21:08.561Z,11.23
2018-09-02T05:22:17.456Z,11.23
2018-09-02T05:23:26.102Z,11.22
2018-09-02T05:24:34.736Z,11.23
2018-09-02T05:25:43.654Z,11.19
2018-09-02T05:26:52.553Z,11.33
2018-09-02T05:28:01.455Z,11.3
2018-09-02T05:29:10.369Z,11.26
2018-09-02T05:30:19.265Z,11.25
2018-09-02T05:31:27.924Z,11.2
2018-09-02T05:32:36.563Z,11.31
2018-09-02T05:33:45.741Z,11.26
2018-09-02T05:34:54.393Z,11.3
2018-09-02T05:36:03.026Z,11.33
2018-09-02T05:37:11.676Z,11.26
2018-09-02T05:38:20.320Z,11.3
2018-09-02T05:39:28.969Z,11.41
2018-09-02T05:40:37.599Z,11.43
2018-09-02T05:41:46.243Z,11.44
2018-09-02T05:42:54.883Z,11.45
2018-09-02T05:44:03.652Z,11.44
2018-09-02T05:45:12.584Z,11.51
2018-09-02T05:46:21.222Z,11.56
2018-09-02T05:47:29.861Z,11.55
2018-09-02T05:48:38.500Z,11.65
2018-09-02T05:49:47.150Z,11.7
2018-09-02T05:50:56.049Z,11.71
2018-09-02T05:52:04.964Z,11.73
2018-09-02T05:53:13.603Z,11.76
2018-09-02T05:54:22.258Z,11.77
2018-09-02T05:55:30.899Z,11.85
2018-09-02T05:56:39.809Z,11.85
2018-09-02T05:57:48.446Z,11.95
2018-09-02T05:58:57.097Z,11.97
2018-09-02T06:00:05.737Z,12.03
2018-09-02T06:01:14.650Z,12.02
2018-09-02T06:02:23.811Z,12.05
2018-09-02T06:03:32.454Z,11.99
2018-09-02T06:04:41.367Z,12.08
2018-09-02T06:05:50.016Z,11.99
2018-09-02T06:06:58.663Z,12.03
2018-09-02T06:08:07.295Z,12.17
2018-09-02T06:09:16.210Z,12.18
2018-09-02T06:10:24.847Z,12.18
2018-09-02T06:11:33.498Z,12.2
2018-09-02T06:12:42.130Z,12.15
2018-09-02T06:13:50.776Z,12.18
2018-09-02T06:14:59.413Z,12.26
2018-09-02T06:16:08.330Z,12.21
2018-09-02T06:17:17.075Z,12.15
2018-09-02T06:18:25.611Z,12.25
2018-09-02T06:19:34.252Z,12.32
2018-09-02T06:20:42.905Z,12.32
2018-09-02T06:21:51.546Z,12.39
2018-09-02T06:23:00.185Z,12.26
2018-09-02T06:24:08.824Z,12.4
2018-09-02T06:25:17.998Z,12.36
2018-09-02T06:26:26.657Z,12.4
2018-09-02T06:27:35.560Z,12.5
2018-09-02T06:28:44.737Z,12.47
2018-09-02T06:29:53.380Z,12.47
2018-09-02T06:31:02.030Z,12.47
2018-09-02T06:32:10.667Z,12.51
2018-09-02T06:33:19.576Z,12.61
2018-09-02T06:34:28.218Z,12.63
2018-09-02T06:35:36.961Z,12.69
2018-09-02T06:36:45.506Z,12.76
2018-09-02T06:37:54.152Z,12.8
2018-09-02T06:39:03.084Z,12.78
2018-09-02T06:40:11.713Z,12.83
2018-09-02T06:41:20.357Z,12.88
2018-09-02T06:42:29.003Z,12.84
2018-09-02T06:43:37.649Z,12.95
2018-09-02T06:44:46.293Z,12.9
2018-09-02T06:45:54.938Z,12.99
2018-09-02T06:47:04.116Z,13.12
2018-09-02T06:48:13.026Z,13.12
2018-09-02T06:49:21.929Z,13.16
2018-09-02T06:50:30.574Z,13.27
2018-09-02T06:51:39.217Z,13.31
2018-09-02T06:52:47.869Z,13.3
2018-09-02T06:53:56.512Z,13.42
2018-09-02T06:55:05.421Z,13.54
2018-09-02T06:56:14.322Z,13.6
2018-09-02T06:57:22.974Z,13.6
2018-09-02T06:58:31.656Z,13.62
2018-09-02T06:59:40.598Z,13.71
2018-09-02T07:00:49.240Z,13.76
2018-09-02T07:01:58.151Z,13.7
2018-09-02T07:03:06.793Z,13.76
2018-09-02T07:04:15.438Z,13.8
2018-09-02T07:05:24.084Z,13.86
2018-09-02T07:06:32.728Z,13.8
2018-09-02T07:07:41.369Z,13.89
2018-09-02T07:08:50.014Z,13.93
2018-09-02T07:09:58.657Z,13.98
2018-09-02T07:11:07.581Z,14.01
2018-09-02T07:12:16.495Z,14.12
2018-09-02T07:13:25.138Z,14.2
2018-09-02T07:14:34.165Z,14.22
2018-09-02T07:15:42.804Z,14.28
2018-09-02T07:16:51.450Z,14.26
2018-09-02T07:18:00.630Z,14.36
2018-09-02T07:19:09.276Z,14.44
2018-09-02T07:20:17.924Z,14.51
2018-09-02T07:21:26.564Z,14.55
2018-09-02T07:22:35.207Z,14.7
2018-09-02T07:23:43.851Z,14.73
2018-09-02T07:24:52.501Z,14.71
2018-09-02T07:26:01.140Z,14.94
2018-09-02T07:27:09.783Z,14.85
2018-09-02T07:28:18.424Z,14.9
2018-09-02T07:29:27.066Z,14.92
2018-09-02T07:30:35.719Z,14.92
2018-09-02T07:31:44.361Z,14.92
2018-09-02T07:32:53.007Z,14.93
2018-09-02T07:34:01.905Z,15.04
2018-09-02T07:35:10.559Z,15.11
2018-09-02T07:36:19.210Z,15.15
2018-09-02T07:37:27.856Z,15.19
2018-09-02T07:38:36.510Z,15.3
2018-09-02T07:39:45.147Z,15.35
2018-09-02T07:40:53.794Z,15.41
2018-09-02T07:42:02.433Z,15.51
2018-09-02T07:43:11.087Z,15.5
2018-09-02T07:44:19.722Z,15.62
2018-09-02T07:45:28.372Z,15.67
2018-09-02T07:46:37.012Z,15.72
2018-09-02T07:47:45.667Z,15.85
2018-09-02T07:48:54.304Z,15.83
2018-09-02T07:50:02.952Z,15.88
2018-09-02T07:51:11.599Z,15.87
2018-09-02T07:52:20.254Z,15.92
2018-09-02T07:53:28.892Z,15.98
2018-09-02T07:54:37.621Z,15.98
2018-09-02T07:55:46.176Z,16.13
2018-09-02T07:56:55.090Z,16.22
2018-09-02T07:58:03.743Z,16.17
2018-09-02T07:59:12.387Z,16.26
2018-09-02T08:00:21.036Z,16.25
2018-09-02T08:01:29.672Z,16.32
2018-09-02T08:02:38.385Z,16.44
2018-09-02T08:03:46.964Z,16.44
2018-09-02T08:04:55.618Z,16.61
2018-09-02T08:06:04.261Z,16.65
2018-09-02T08:07:12.918Z,16.59
2018-09-02T08:08:21.560Z,16.77
2018-09-02T08:09:30.207Z,16.76
2018-09-02T08:10:38.843Z,16.83
2018-09-02T08:11:48.018Z,16.86
2018-09-02T08:12:56.825Z,16.95
2018-09-02T08:14:05.315Z,17.09
2018-09-02T08:15:13.966Z,17.13
2018-09-02T08:16:22.605Z,17.16
2018-09-02T08:17:31.780Z,17.19
2018-09-02T08:18:40.425Z,17.27
2018-09-02T08:19:49.143Z,17.37
2018-09-02T08:20:57.708Z,17.42
2018-09-02T08:22:06.624Z,17.35
2018-09-02T08:23:15.267Z,17.32
2018-09-02T08:24:23.922Z,17.35
2018-09-02T08:25:32.561Z,17.31
2018-09-02T08:26:41.582Z,17.41
2018-09-02T08:27:50.598Z,17.39
2018-09-02T08:28:59.249Z,17.63
2018-09-02T08:30:08.164Z,17.68
2018-09-02T08:31:17.085Z,17.76
2018-09-02T08:32:25.994Z,17.8
2018-09-02T08:33:34.638Z,17.87
2018-09-02T08:34:43.286Z,17.95
2018-09-02T08:35:51.932Z,18
2018-09-02T08:37:00.585Z,17.93
2018-09-02T08:38:09.494Z,17.97
2018-09-02T08:39:18.212Z,18.03
2018-09-02T08:40:26.795Z,18
2018-09-02T08:41:35.445Z,18.12
2018-09-02T08:42:44.349Z,18.11
2018-09-02T08:43:53.001Z,18.21
2018-09-02T08:45:01.646Z,18.16
2018-09-02T08:46:10.291Z,18.27
2018-09-02T08:47:18.932Z,18.3
2018-09-02T08:48:27.580Z,18.48
2018-09-02T08:49:36.499Z,18.42
2018-09-02T08:50:45.413Z,18.48
2018-09-02T08:51:54.060Z,18.55
2018-09-02T08:53:02.706Z,18.6
2018-09-02T08:54:11.350Z,18.55
2018-09-02T08:55:20.258Z,18.58
2018-09-02T08:56:29.177Z,18.63
2018-09-02T08:57:38.087Z,18.64
2018-09-02T08:58:46.999Z,18.68
2018-09-02T08:59:55.646Z,18.76
2018-09-02T09:01:04.300Z,18.86
2018-09-02T09:02:12.940Z,18.89
2018-09-02T09:03:21.590Z,18.96
2018-09-02T09:04:30.231Z,19.07
2018-09-02T09:05:38.888Z,19.12
2018-09-02T09:06:47.532Z,19.15
2018-09-02T09:07:56.334Z,19.23
2018-09-02T09:09:05.047Z,19.23
2018-09-02T09:10:14.375Z,19.22
2018-09-02T09:11:23.025Z,19.24
2018-09-02T09:12:31.672Z,19.26
2018-09-02T09:13:40.582Z,19.34
2018-09-02T09:14:49.225Z,19.35
2018-09-02T09:15:57.878Z,19.37
2018-09-02T09:17:07.027Z,19.32
2018-09-02T09:18:15.796Z,19.45
2018-09-02T09:19:24.440Z,19.45
2018-09-02T09:20:33.091Z,19.47
2018-09-02T09:21:42.500Z,19.47
2018-09-02T09:22:51.047Z,19.57
2018-09-02T09:24:00.169Z,19.63
2018-09-02T09:25:09.151Z,19.67
2018-09-02T09:26:18.148Z,19.66
2018-09-02T09:27:26.796Z,19.67
2018-09-02T09:28:35.441Z,19.7
2018-09-02T09:29:44.101Z,19.78
2018-09-02T09:30:52.747Z,19.72
2018-09-02T09:32:01.393Z,19.85
2018-09-02T09:33:10.037Z,19.84
2018-09-02T09:34:18.689Z,19.87
2018-09-02T09:35:27.615Z,19.97
2018-09-02T09:36:36.257Z,19.96
2018-09-02T09:37:44.898Z,19.87
2018-09-02T09:38:53.551Z,20.02
2018-09-02T09:40:02.196Z,20.04
2018-09-02T09:41:10.854Z,20.02
2018-09-02T09:42:19.510Z,20.15
2018-09-02T09:43:28.143Z,20.11
2018-09-02T09:44:36.790Z,20.19
2018-09-02T09:45:45.439Z,20.22
2018-09-02T09:46:54.094Z,20.27
2018-09-02T09:48:02.739Z,20.18
2018-09-02T09:49:11.653Z,20.26
2018-09-02T09:50:20.301Z,20.3
2018-09-02T09:51:28.954Z,20.39
2018-09-02T09:52:37.596Z,20.34
2018-09-02T09:53:46.245Z,20.36
2018-09-02T09:54:54.893Z,20.42
2018-09-02T09:56:03.545Z,20.44
2018-09-02T09:57:12.188Z,20.42
2018-09-02T09:58:20.837Z,20.44
2018-09-02T09:59:29.485Z,20.39
2018-09-02T10:00:38.135Z,20.37
2018-09-02T10:01:46.784Z,20.37
2018-09-02T10:02:55.432Z,20.33
2018-09-02T10:04:04.076Z,20.3
2018-09-02T10:05:12.721Z,20.34
2018-09-02T10:06:21.376Z,20.48
2018-09-02T10:07:30.022Z,20.53
2018-09-02T10:08:38.933Z,20.5
2018-09-02T10:09:47.646Z,20.63
2018-09-02T10:10:56.230Z,20.59
2018-09-02T10:12:05.145Z,20.63
2018-09-02T10:13:13.796Z,20.74
2018-09-02T10:14:22.437Z,20.71
2018-09-02T10:15:31.090Z,20.8
2018-09-02T10:16:39.734Z,20.82
2018-09-02T10:17:48.384Z,20.78
2018-09-02T10:18:57.030Z,20.89
2018-09-02T10:20:05.681Z,20.92
2018-09-02T10:21:14.334Z,20.88
2018-09-02T10:22:22.978Z,21.04
2018-09-02T10:23:31.896Z,21.05
2018-09-02T10:24:40.539Z,20.95
2018-09-02T10:25:49.189Z,21.05
2018-09-02T10:26:57.832Z,21.07
2018-09-02T10:28:06.489Z,21.05
2018-09-02T10:29:15.132Z,21.01
2018-09-02T10:30:23.785Z,21.01
2018-09-02T10:31:32.427Z,21.1
2018-09-02T10:32:41.086Z,21.01
2018-09-02T10:33:49.726Z,21.04
2018-09-02T10:34:58.388Z,21.08
2018-09-02T10:36:07.023Z,21.01
2018-09-02T10:37:15.945Z,21.08
2018-09-02T10:38:24.590Z,20.95
2018-09-02T10:39:33.234Z,20.88
2018-09-02T10:40:41.880Z,20.92
2018-09-02T10:41:50.530Z,20.85
2018-09-02T10:42:59.722Z,20.95
2018-09-02T10:44:08.367Z,20.88
2018-09-02T10:45:17.020Z,20.85
2018-09-02T10:46:25.658Z,20.9
2018-09-02T10:47:34.316Z,20.86
2018-09-02T10:48:42.966Z,21.01
2018-09-02T10:49:51.621Z,21.03
2018-09-02T10:51:00.255Z,21.11
2018-09-02T10:52:08.912Z,21.15
2018-09-02T10:53:17.564Z,21.26
2018-09-02T10:54:26.216Z,21.33
2018-09-02T10:55:34.856Z,21.37
2018-09-02T10:56:43.505Z,21.33
2018-09-02T10:57:52.158Z,21.37
2018-09-02T10:59:00.809Z,21.38
2018-09-02T11:00:09.461Z,21.44
2018-09-02T11:01:18.097Z,21.35
2018-09-02T11:02:27.017Z,21.41
2018-09-02T11:03:35.932Z,21.51
2018-09-02T11:04:44.594Z,21.45
2018-09-02T11:05:53.757Z,21.48
2018-09-02T11:07:02.410Z,21.44
2018-09-02T11:08:11.055Z,21.47
2018-09-02T11:09:19.993Z,21.43
2018-09-02T11:10:28.664Z,21.53
2018-09-02T11:11:37.289Z,21.59
2018-09-02T11:12:46.199Z,21.59
2018-09-02T11:13:55.040Z,21.59
2018-09-02T11:15:03.778Z,21.7
2018-09-02T11:16:12.691Z,21.7
2018-09-02T11:17:21.340Z,21.78
2018-09-02T11:18:29.984Z,21.69
2018-09-02T11:19:38.643Z,21.77
2018-09-02T11:20:47.290Z,21.7
2018-09-02T11:21:55.945Z,21.68
2018-09-02T11:23:04.583Z,21.7
2018-09-02T11:24:13.766Z,21.75
2018-09-02T11:25:22.419Z,21.72
2018-09-02T11:26:31.337Z,21.68
2018-09-02T11:27:39.983Z,21.7
2018-09-02T11:28:48.635Z,21.7
2018-09-02T11:29:57.281Z,21.68
2018-09-02T11:31:05.933Z,21.78
2018-09-02T11:32:14.577Z,21.88
2018-09-02T11:33:23.489Z,21.84
2018-09-02T11:34:32.142Z,21.85
2018-09-02T11:35:41.056Z,21.85
2018-09-02T11:36:49.969Z,21.78
2018-09-02T11:37:58.875Z,21.94
2018-09-02T11:39:07.522Z,21.96
2018-09-02T11:40:16.209Z,22.04
2018-09-02T11:41:24.823Z,22.1
2018-09-02T11:42:33.465Z,22.1
2018-09-02T11:43:42.378Z,22.12
2018-09-02T11:44:51.028Z,22.12
2018-09-02T11:45:59.685Z,22.14
2018-09-02T11:47:08.597Z,22.16
2018-09-02T11:48:17.515Z,22.18
2018-09-02T11:49:26.160Z,22.16
2018-09-02T11:50:34.813Z,22.18
2018-09-02T11:51:43.462Z,22.16
2018-09-02T11:52:52.643Z,22.16
2018-09-02T11:54:01.299Z,22.23
2018-09-02T11:55:10.490Z,22.14
2018-09-02T11:56:19.404Z,22.21
2018-09-02T11:57:28.052Z,22.18
2018-09-02T11:58:36.985Z,22.19
2018-09-02T11:59:45.893Z,22.18
2018-09-02T12:00:54.810Z,22.14
2018-09-02T12:02:03.459Z,22.15
2018-09-02T12:03:12.111Z,22.18
2018-09-02T12:04:21.025Z,22.18
2018-09-02T12:05:29.942Z,22.25
2018-09-02T12:06:38.587Z,22.3
2018-09-02T12:07:47.242Z,22.22
2018-09-02T12:08:55.885Z,22.21
2018-09-02T12:10:04.540Z,22.25
2018-09-02T12:11:13.196Z,22.33
2018-09-02T12:12:21.848Z,22.28
2018-09-02T12:13:30.500Z,22.33
2018-09-02T12:14:39.238Z,22.34
2018-09-02T12:15:48.062Z,22.28
2018-09-02T12:16:56.971Z,22.21
2018-09-02T12:18:05.626Z,22.21
2018-09-02T12:19:14.271Z,22.21
2018-09-02T12:20:22.918Z,22.15
2018-09-02T12:21:31.833Z,22.3
2018-09-02T12:22:40.754Z,22.28
2018-09-02T12:23:49.398Z,22.4
2018-09-02T12:24:58.050Z,22.41
2018-09-02T12:26:06.695Z,22.43
2018-09-02T12:27:15.353Z,22.46
2018-09-02T12:28:24.263Z,22.51
2018-09-02T12:29:32.909Z,22.49
2018-09-02T12:30:41.556Z,22.43
2018-09-02T12:31:50.213Z,22.53
2018-09-02T12:32:58.874Z,22.53
2018-09-02T12:34:07.519Z,22.43
2018-09-02T12:35:16.169Z,22.43
2018-09-02T12:36:25.077Z,22.46
2018-09-02T12:37:33.732Z,22.47
2018-09-02T12:38:42.381Z,22.53
2018-09-02T12:39:51.034Z,22.44
2018-09-02T12:40:59.673Z,22.44
2018-09-02T12:42:08.337Z,22.58
2018-09-02T12:43:16.978Z,22.55
2018-09-02T12:44:25.634Z,22.56
2018-09-02T12:45:34.532Z,22.58
2018-09-02T12:46:43.188Z,22.65
2018-09-02T12:47:52.217Z,22.65
2018-09-02T12:49:00.756Z,22.61
2018-09-02T12:50:09.413Z,22.71
2018-09-02T12:51:18.059Z,22.71
2018-09-02T12:52:26.971Z,22.59
2018-09-02T12:53:35.619Z,22.7
2018-09-02T12:54:44.548Z,22.62
2018-09-02T12:55:53.197Z,22.67
2018-09-02T12:57:01.853Z,22.73
2018-09-02T12:58:10.497Z,22.59
2018-09-02T12:59:19.155Z,22.68
2018-09-02T13:00:27.795Z,22.73
2018-09-02T13:01:36.456Z,22.58
2018-09-02T13:02:45.113Z,22.68
2018-09-02T13:03:53.770Z,22.59
2018-09-02T13:05:02.416Z,22.65
2018-09-02T13:06:11.063Z,22.68
2018-09-02T13:07:19.708Z,22.71
2018-09-02T13:08:28.356Z,22.74
2018-09-02T13:09:37.088Z,22.68
2018-09-02T13:10:45.661Z,22.77
2018-09-02T13:11:54.317Z,22.74
2018-09-02T13:13:02.957Z,22.77
2018-09-02T13:14:11.616Z,22.83
2018-09-02T13:15:20.335Z,22.81
2018-09-02T13:16:28.914Z,22.81
2018-09-02T13:17:37.560Z,22.78
2018-09-02T13:18:46.213Z,22.71
2018-09-02T13:19:54.895Z,22.73
2018-09-02T13:21:03.509Z,22.7
2018-09-02T13:22:12.176Z,22.68
2018-09-02T13:23:20.826Z,22.68
2018-09-02T13:24:29.501Z,22.61
2018-09-02T13:25:38.115Z,22.67
2018-09-02T13:26:46.763Z,22.74
2018-09-02T13:27:55.422Z,22.71
2018-09-02T13:29:04.331Z,22.61
2018-09-02T13:30:12.985Z,22.61
2018-09-02T13:31:21.625Z,22.78
2018-09-02T13:32:30.312Z,22.68
2018-09-02T13:33:39.263Z,22.7
2018-09-02T13:34:48.163Z,22.73
2018-09-02T13:35:56.801Z,22.73
2018-09-02T13:37:05.461Z,22.74
2018-09-02T13:38:14.114Z,22.76
2018-09-02T13:39:23.025Z,22.71
2018-09-02T13:40:31.675Z,22.74
2018-09-02T13:41:40.324Z,22.8
2018-09-02T13:42:48.978Z,22.78
2018-09-02T13:43:57.631Z,22.73
2018-09-02T13:45:06.281Z,22.71
2018-09-02T13:46:14.923Z,22.73
2018-09-02T13:47:23.575Z,22.77
2018-09-02T13:48:32.333Z,22.76
2018-09-02T13:49:41.288Z,22.78
2018-09-02T13:50:49.929Z,22.7
2018-09-02T13:51:58.586Z,22.78
2018-09-02T13:53:07.232Z,22.89
2018-09-02T13:54:16.155Z,22.92
2018-09-02T13:55:25.349Z,22.88
2018-09-02T13:56:34.005Z,22.95
2018-09-02T13:57:42.657Z,23.01
2018-09-02T13:58:51.582Z,22.99
2018-09-02T14:00:00.226Z,22.99
2018-09-02T14:01:08.975Z,22.99
2018-09-02T14:02:17.896Z,22.98
2018-09-02T14:03:26.539Z,22.96
2018-09-02T14:04:35.461Z,22.95
2018-09-02T14:05:44.107Z,22.96
2018-09-02T14:06:52.761Z,22.84
2018-09-02T14:08:01.540Z,22.92
2018-09-02T14:09:10.065Z,22.88
2018-09-02T14:10:18.711Z,22.86
2018-09-02T14:11:27.365Z,22.89
2018-09-02T14:12:36.009Z,22.89
2018-09-02T14:13:45.205Z,22.89
2018-09-02T14:14:53.855Z,22.93
2018-09-02T14:16:02.508Z,22.93
2018-09-02T14:17:11.151Z,22.83
2018-09-02T14:18:20.073Z,22.71
2018-09-02T14:19:28.726Z,22.65
2018-09-02T14:20:37.375Z,22.63
2018-09-02T14:21:46.027Z,22.61
2018-09-02T14:22:54.672Z,22.59
2018-09-02T14:24:03.326Z,22.56
2018-09-02T14:25:11.974Z,22.71
2018-09-02T14:26:20.630Z,22.68
2018-09-02T14:27:29.538Z,22.59
2018-09-02T14:28:38.188Z,22.58
2018-09-02T14:29:46.840Z,22.67
2018-09-02T14:30:55.491Z,22.71
2018-09-02T14:32:04.135Z,22.7
2018-09-02T14:33:12.788Z,22.61
2018-09-02T14:34:21.437Z,22.73
2018-09-02T14:35:30.091Z,22.68
2018-09-02T14:36:38.738Z,22.63
2018-09-02T14:37:47.388Z,22.71
2018-09-02T14:38:56.036Z,22.73
2018-09-02T14:40:04.682Z,22.65
2018-09-02T14:41:13.604Z,22.7
2018-09-02T14:42:22.260Z,22.73
2018-09-02T14:43:30.908Z,22.74
2018-09-02T14:44:39.553Z,22.73
2018-09-02T14:45:48.207Z,22.67
2018-09-02T14:46:56.867Z,22.74
2018-09-02T14:48:05.782Z,22.73
2018-09-02T14:49:14.435Z,22.71